Time,TemperatureF,DewpointF,PressureIn,WindDirection,WindDirectionDegrees,WindSpeedMPH,WindSpeedGustMPH,Humidity,HourlyPrecipIn,Conditions,Clouds,dailyrainin,SoftwareType,DateUTC
2013-02-23 00:06:00,43.5,43.0,29.95,ENE,66,0.0,2.0,96,0.07,,,0.00,weatherlink.com 1.10,2013-02-23 06:06:00,
2013-02-23 00:21:00,43.5,43.0,29.95,North,5,0.0,2.0,96,0.11,,,0.04,weatherlink.com 1.10,2013-02-23 06:21:00,
2013-02-23 00:36:00,43.4,42.0,29.94,NE,41,0.0,0.0,96,0.11,,,0.07,weatherlink.com 1.10,2013-02-23 06:36:00,
2013-02-23 00:51:00,43.4,42.0,29.95,ENE,74,0.0,1.0,96,0.10,,,0.07,weatherlink.com 1.10,2013-02-23 06:51:00,
2013-02-23 01:06:00,43.5,43.0,29.95,ENE,74,0.0,0.0,96,0.09,,,0.09,weatherlink.com 1.10,2013-02-23 07:06:00,
2013-02-23 01:21:00,43.5,43.0,29.93,East,92,0.0,0.0,96,0.05,,,0.09,weatherlink.com 1.10,2013-02-23 07:21:00,
2013-02-23 01:36:00,43.6,43.0,29.92,NNW,328,0.0,1.0,96,0.05,,,0.12,weatherlink.com 1.10,2013-02-23 07:36:00,
2013-02-23 01:51:00,43.5,43.0,29.92,NNW,344,1.0,4.0,96,0.05,,,0.12,weatherlink.com 1.10,2013-02-23 07:51:00,
2013-02-23 02:06:00,43.6,43.0,29.91,North,5,0.0,1.0,96,0.06,,,0.15,weatherlink.com 1.10,2013-02-23 08:06:00,
2013-02-23 02:21:00,43.6,43.0,29.91,NNE,17,0.0,0.0,96,0.11,,,0.20,weatherlink.com 1.10,2013-02-23 08:21:00,
2013-02-23 02:36:00,43.7,43.0,29.91,North,355,0.0,4.0,96,0.08,,,0.20,weatherlink.com 1.10,2013-02-23 08:36:00,
2013-02-23 02:51:00,43.7,43.0,29.91,North,350,0.0,0.0,96,0.09,,,0.21,weatherlink.com 1.10,2013-02-23 08:51:00,
2013-02-23 03:06:00,43.7,43.0,29.92,NNW,332,0.0,2.0,96,0.07,,,0.22,weatherlink.com 1.10,2013-02-23 09:06:00,
2013-02-23 03:21:00,43.7,43.0,29.90,NE,34,0.0,1.0,96,0.09,,,0.29,weatherlink.com 1.10,2013-02-23 09:21:00,
2013-02-23 03:36:00,43.7,43.0,29.90,ENE,59,0.0,2.0,96,0.12,,,0.32,weatherlink.com 1.10,2013-02-23 09:36:00,
2013-02-23 03:51:00,43.7,43.0,29.89,ENE,59,0.0,0.0,96,0.19,,,0.40,weatherlink.com 1.10,2013-02-23 09:51:00,
2013-02-23 04:06:00,43.8,43.0,29.90,ENE,59,0.0,0.0,96,0.18,,,0.41,weatherlink.com 1.10,2013-02-23 10:06:00,
2013-02-23 04:21:00,43.8,43.0,29.90,North,360,0.0,0.0,96,0.14,,,0.43,weatherlink.com 1.10,2013-02-23 10:21:00,
2013-02-23 04:36:00,43.9,43.0,29.89,NNW,341,0.0,0.0,96,0.10,,,0.43,weatherlink.com 1.10,2013-02-23 10:36:00,
2013-02-23 04:51:00,44.1,43.0,29.90,NNW,341,0.0,1.0,96,0.03,,,0.43,weatherlink.com 1.10,2013-02-23 10:51:00,
2013-02-23 05:06:00,44.1,43.0,29.91,NW,310,0.0,0.0,96,0.03,,,0.44,weatherlink.com 1.10,2013-02-23 11:06:00,
2013-02-23 05:21:00,44.2,43.0,29.91,NW,310,0.0,0.0,96,0.01,,,0.44,weatherlink.com 1.10,2013-02-23 11:21:00,
2013-02-23 05:36:00,44.3,43.0,29.91,NNW,328,0.0,1.0,96,0.01,,,0.44,weatherlink.com 1.10,2013-02-23 11:36:00,
2013-02-23 05:51:00,44.2,43.0,29.91,NW,321,1.0,1.0,96,0.01,,,0.44,weatherlink.com 1.10,2013-02-23 11:51:00,
2013-02-23 06:06:00,44.2,43.0,29.93,NNW,330,0.0,2.0,96,0.00,,,0.44,weatherlink.com 1.10,2013-02-23 12:06:00,
2013-02-23 06:21:00,44.3,43.0,29.93,NNW,330,0.0,0.0,96,0.00,,,0.44,weatherlink.com 1.10,2013-02-23 12:21:00,
2013-02-23 06:36:00,44.4,43.0,29.92,NNW,330,0.0,2.0,96,0.01,,,0.45,weatherlink.com 1.10,2013-02-23 12:36:00,
2013-02-23 06:51:00,44.5,44.0,29.92,NNW,330,0.0,0.0,96,0.01,,,0.45,weatherlink.com 1.10,2013-02-23 12:51:00,
2013-02-23 07:06:00,44.6,44.0,29.91,NNW,330,0.0,0.0,97,0.01,,,0.45,weatherlink.com 1.10,2013-02-23 13:06:00,
2013-02-23 07:21:00,45.0,44.0,29.92,NNW,330,0.0,1.0,97,0.01,,,0.45,weatherlink.com 1.10,2013-02-23 13:21:00,
2013-02-23 07:36:00,45.1,44.0,29.92,NNW,330,0.0,0.0,97,0.00,,,0.45,weatherlink.com 1.10,2013-02-23 13:36:00,
2013-02-23 07:51:00,45.1,44.0,29.92,NNW,330,0.0,0.0,97,0.00,,,0.45,weatherlink.com 1.10,2013-02-23 13:51:00,
2013-02-23 08:06:00,45.1,44.0,29.92,NNW,330,0.0,0.0,96,0.00,,,0.45,weatherlink.com 1.10,2013-02-23 14:06:00,
2013-02-23 08:21:00,45.4,45.0,29.91,NNW,330,0.0,0.0,97,0.00,,,0.45,weatherlink.com 1.10,2013-02-23 14:21:00,
2013-02-23 08:36:00,46.2,45.0,29.92,WSW,253,0.0,1.0,97,0.00,,,0.45,weatherlink.com 1.10,2013-02-23 14:36:00,
2013-02-23 08:51:00,46.7,46.0,29.91,NW,321,0.0,1.0,97,0.00,,,0.45,weatherlink.com 1.10,2013-02-23 14:51:00,
2013-02-23 09:06:00,46.9,46.0,29.91,NW,321,0.0,0.0,97,0.00,,,0.45,weatherlink.com 1.10,2013-02-23 15:06:00,
2013-02-23 09:21:00,47.5,47.0,29.91,NNW,346,0.0,0.0,96,0.00,,,0.45,weatherlink.com 1.10,2013-02-23 15:21:00,
2013-02-23 09:36:00,48.1,47.0,29.90,ESE,109,0.0,0.0,96,0.00,,,0.45,weatherlink.com 1.10,2013-02-23 15:36:00,
2013-02-23 09:51:00,48.6,47.0,29.91,NW,313,1.0,1.0,95,0.00,,,0.45,weatherlink.com 1.10,2013-02-23 15:51:00,
2013-02-23 10:06:00,49.0,47.0,29.91,NW,315,0.0,0.0,93,0.00,,,0.45,weatherlink.com 1.10,2013-02-23 16:06:00,
2013-02-23 10:21:00,49.4,48.0,29.91,NNW,342,1.0,2.0,93,0.00,,,0.45,weatherlink.com 1.10,2013-02-23 16:21:00,
2013-02-23 10:36:00,50.1,48.0,29.91,NW,324,1.0,2.0,91,0.00,,,0.45,weatherlink.com 1.10,2013-02-23 16:36:00,
2013-02-23 10:51:00,51.1,49.0,29.91,SE,127,0.0,1.0,92,0.00,,,0.45,weatherlink.com 1.10,2013-02-23 16:51:00,
2013-02-23 11:07:00,52.5,49.0,29.90,NNW,332,1.0,3.0,88,0.00,,,0.45,weatherlink.com 1.10,2013-02-23 17:07:00,
2013-02-23 11:22:00,53.3,50.0,29.89,NNW,341,0.0,2.0,87,0.00,,,0.45,weatherlink.com 1.10,2013-02-23 17:22:00,
2013-02-23 11:37:00,54.4,49.0,29.88,WNW,294,1.0,5.0,83,0.00,,,0.45,weatherlink.com 1.10,2013-02-23 17:37:00,
2013-02-23 11:52:00,55.4,50.0,29.88,NE,49,0.0,1.0,82,0.00,,,0.45,weatherlink.com 1.10,2013-02-23 17:52:00,
2013-02-23 12:07:00,56.2,50.0,29.87,WNW,302,0.0,2.0,81,0.00,,,0.45,weatherlink.com 1.10,2013-02-23 18:07:00,
2013-02-23 12:22:00,56.6,51.0,29.87,SSE,152,0.0,0.0,81,0.00,,,0.45,weatherlink.com 1.10,2013-02-23 18:22:00,
2013-02-23 12:37:00,56.9,51.0,29.86,SE,136,0.0,1.0,80,0.00,,,0.45,weatherlink.com 1.10,2013-02-23 18:37:00,
2013-02-23 12:52:00,57.9,51.0,29.86,WSW,244,0.0,1.0,78,0.00,,,0.45,weatherlink.com 1.10,2013-02-23 18:52:00,
2013-02-23 13:07:00,58.4,51.0,29.86,NW,307,0.0,3.0,77,0.00,,,0.45,weatherlink.com 1.10,2013-02-23 19:07:00,
2013-02-23 13:22:00,58.6,51.0,29.85,WNW,293,2.0,2.0,75,0.00,,,0.45,weatherlink.com 1.10,2013-02-23 19:22:00,
2013-02-23 13:37:00,59.0,51.0,29.86,West,270,0.0,1.0,76,0.00,,,0.45,weatherlink.com 1.10,2013-02-23 19:37:00,
2013-02-23 13:52:00,59.2,51.0,29.86,South,169,0.0,4.0,75,0.00,,,0.45,weatherlink.com 1.10,2013-02-23 19:52:00,
2013-02-23 14:07:00,58.6,52.0,29.85,South,171,0.0,2.0,80,0.00,,,0.45,weatherlink.com 1.10,2013-02-23 20:07:00,
2013-02-23 14:22:00,57.8,52.0,29.84,South,171,0.0,0.0,82,0.00,,,0.45,weatherlink.com 1.10,2013-02-23 20:22:00,
2013-02-23 14:37:00,57.3,52.0,29.84,South,169,0.0,0.0,82,0.00,,,0.45,weatherlink.com 1.10,2013-02-23 20:37:00,
2013-02-23 14:52:00,56.8,52.0,29.84,NW,319,0.0,1.0,83,0.00,,,0.45,weatherlink.com 1.10,2013-02-23 20:52:00,
2013-02-23 15:07:00,56.4,50.0,29.84,NNW,340,2.0,4.0,80,0.00,,,0.45,weatherlink.com 1.10,2013-02-23 21:07:00,
2013-02-23 15:22:00,56.0,50.0,29.84,NW,306,0.0,6.0,80,0.00,,,0.45,weatherlink.com 1.10,2013-02-23 21:22:00,
2013-02-23 15:37:00,54.7,49.0,29.83,NNW,335,0.0,7.0,81,0.00,,,0.45,weatherlink.com 1.10,2013-02-23 21:37:00,
2013-02-23 15:52:00,53.5,49.0,29.83,NNW,346,3.0,6.0,83,0.00,,,0.45,weatherlink.com 1.10,2013-02-23 21:52:00,
2013-02-23 16:07:00,52.6,48.0,29.83,North,360,2.0,5.0,84,0.00,,,0.45,weatherlink.com 1.10,2013-02-23 22:07:00,
2013-02-23 16:22:00,51.9,48.0,29.83,WNW,301,0.0,6.0,86,0.00,,,0.45,weatherlink.com 1.10,2013-02-23 22:22:00,
2013-02-23 16:37:00,51.2,47.0,29.83,NE,38,0.0,4.0,85,0.00,,,0.45,weatherlink.com 1.10,2013-02-23 22:37:00,
2013-02-23 16:52:00,50.6,47.0,29.82,NNW,341,0.0,5.0,86,0.00,,,0.45,weatherlink.com 1.10,2013-02-23 22:52:00,
2013-02-23 17:07:00,50.2,47.0,29.82,NNW,337,0.0,3.0,87,0.00,,,0.45,weatherlink.com 1.10,2013-02-23 23:07:00,
2013-02-23 17:22:00,49.9,47.0,29.83,North,360,0.0,3.0,88,0.00,,,0.45,weatherlink.com 1.10,2013-02-23 23:22:00,
2013-02-23 17:37:00,49.4,46.0,29.83,NNE,28,0.0,3.0,89,0.00,,,0.45,weatherlink.com 1.10,2013-02-23 23:37:00,
2013-02-23 17:52:00,48.7,46.0,29.84,NNE,28,0.0,0.0,90,0.00,,,0.45,weatherlink.com 1.10,2013-02-23 23:52:00,
2013-02-23 18:07:00,48.2,46.0,29.84,North,9,0.0,0.0,90,0.00,,,0.45,weatherlink.com 1.10,2013-02-24 00:07:00,
2013-02-23 18:22:00,47.6,45.0,29.85,North,9,0.0,0.0,91,0.00,,,0.45,weatherlink.com 1.10,2013-02-24 00:22:00,
2013-02-23 18:37:00,47.0,45.0,29.86,North,9,0.0,0.0,91,0.00,,,0.45,weatherlink.com 1.10,2013-02-24 00:37:00,
2013-02-23 18:52:00,46.3,44.0,29.87,North,9,0.0,0.0,92,0.00,,,0.45,weatherlink.com 1.10,2013-02-24 00:52:00,
2013-02-23 19:07:00,45.5,43.0,29.88,North,9,0.0,0.0,92,0.00,,,0.45,weatherlink.com 1.10,2013-02-24 01:07:00,
2013-02-23 19:22:00,44.9,43.0,29.88,North,9,0.0,0.0,93,0.00,,,0.45,weatherlink.com 1.10,2013-02-24 01:22:00,
2013-02-23 19:37:00,44.2,42.0,29.89,North,9,0.0,0.0,93,0.00,,,0.45,weatherlink.com 1.10,2013-02-24 01:37:00,
2013-02-23 19:52:00,43.7,42.0,29.89,North,9,0.0,0.0,93,0.00,,,0.45,weatherlink.com 1.10,2013-02-24 01:52:00,
2013-02-23 20:09:00,43.3,42.0,29.90,North,9,0.0,0.0,94,0.00,,,0.45,weatherlink.com 1.10,2013-02-24 02:09:00,
2013-02-23 20:22:00,42.7,41.0,29.91,North,9,0.0,0.0,94,0.00,,,0.45,weatherlink.com 1.10,2013-02-24 02:22:00,
2013-02-23 20:37:00,42.4,41.0,29.90,North,9,0.0,0.0,94,0.00,,,0.45,weatherlink.com 1.10,2013-02-24 02:37:00,
2013-02-23 20:52:00,42.2,41.0,29.91,North,9,0.0,0.0,94,0.00,,,0.45,weatherlink.com 1.10,2013-02-24 02:52:00,
2013-02-23 21:07:00,41.8,40.0,29.90,North,9,0.0,0.0,94,0.00,,,0.45,weatherlink.com 1.10,2013-02-24 03:07:00,
2013-02-23 21:23:00,41.4,40.0,29.89,North,9,0.0,0.0,94,0.00,,,0.45,weatherlink.com 1.10,2013-02-24 03:23:00,
2013-02-23 21:38:00,40.9,39.0,29.90,North,9,0.0,0.0,94,0.00,,,0.45,weatherlink.com 1.10,2013-02-24 03:38:00,
2013-02-23 21:53:00,40.3,39.0,29.90,North,9,0.0,0.0,94,0.00,,,0.45,weatherlink.com 1.10,2013-02-24 03:53:00,
2013-02-23 22:08:00,40.0,39.0,29.89,North,9,0.0,0.0,94,0.00,,,0.45,weatherlink.com 1.10,2013-02-24 04:08:00,
2013-02-23 22:23:00,39.4,38.0,29.90,North,9,0.0,0.0,94,0.00,,,0.45,weatherlink.com 1.10,2013-02-24 04:23:00,
2013-02-23 22:38:00,38.8,37.0,29.90,North,9,0.0,0.0,94,0.00,,,0.45,weatherlink.com 1.10,2013-02-24 04:38:00,
2013-02-23 22:53:00,38.4,37.0,29.90,North,9,0.0,0.0,94,0.00,,,0.45,weatherlink.com 1.10,2013-02-24 04:53:00,
2013-02-23 23:08:00,37.9,36.0,29.90,North,9,0.0,0.0,94,0.00,,,0.45,weatherlink.com 1.10,2013-02-24 05:08:00,
2013-02-23 23:23:00,37.4,36.0,29.90,North,9,0.0,0.0,94,0.00,,,0.45,weatherlink.com 1.10,2013-02-24 05:23:00,
2013-02-23 23:38:00,37.0,36.0,29.91,North,9,0.0,0.0,94,0.00,,,0.45,weatherlink.com 1.10,2013-02-24 05:38:00,
2013-02-23 23:54:00,36.5,35.0,29.91,North,9,0.0,0.0,94,0.00,,,0.45,weatherlink.com 1.10,2013-02-24 05:54:00,